KRSW/RSW METAR and TAF weather

Enter ICAO airport designator
Station Type Date Time Source
KRSW METAR 2019/08/20 08:53 UTC NOAA

KRSW 200853Z AUTO 09005KT 10SM CLR 24/23 A3003 RMK AO2 SLP167 T02440233 55010


Station Type Date Time Source
KRSW Decoded METAR 2019/08/20 08:53 UTC NOAA

FORT MYERS SW FL INTERNATIONAL AIRPORT , FL, United States (KRSW) 26-32N 081-46W 9M
Aug 20, 2019 - 04:53 AM EDT / 2019.08.20 0853 UTC
Wind: from the E (090 degrees) at 6 MPH (5 KT):0
Visibility: 10 mile(s):0
Sky conditions: clear
Temperature: 75.9 F (24.4 C)
Dew Point: 73.9 F (23.3 C)
Relative Humidity: 93%
Pressure (altimeter): 30.03 in. Hg (1016 hPa)
Pressure tendency: 0.03 inches (1.0 hPa) lower than three hours ago
ob: KRSW 200853Z AUTO 09005KT 10SM CLR 24/23 A3003 RMK AO2 SLP167 T02440233 55010
cycle: 9

Station Type Date Time Source
KRSW TAF 2019/08/20 06:36 UTC NOAA

TAF KRSW 200534Z 2006/2106 VRB03KT P6SM FEW030 SCT250
FM201400 10006KT P6SM SCT030 BKN250
FM201800 13008KT P6SM VCTS SCT040CB BKN250
FM210300 VRB04KT P6SM SCT050 BKN250

Example: see airport list